EGSS/STN METAR and TAF weather

Enter ICAO airport designator
Station Type Date Time Source
EGSS METAR 2019/02/17 07:50 UTC NOAA

EGSS 170750Z AUTO 14009KT 1500 BR NCD 04/04 Q1015


Station Type Date Time Source
EGSS Decoded METAR 2019/02/17 07:50 UTC NOAA

Stansted Airport, United Kingdom (EGSS) 51-53N 000-14E 0M
Feb 17, 2019 - 02:50 AM EST / 2019.02.17 0750 UTC
Wind: from the SE (140 degrees) at 10 MPH (9 KT):0
Visibility: less than 1 mile:0
Weather: mist
Temperature: 39 F (4 C)
Dew Point: 39 F (4 C)
Relative Humidity: 100%
Pressure (altimeter): 29.97 in. Hg (1015 hPa)
ob: EGSS 170750Z AUTO 14009KT 1500 BR NCD 04/04 Q1015
cycle: 8

Station Type Date Time Source
EGSS TAF 2019/02/17 06:06 UTC NOAA

TAF EGSS 170500Z 1706/1812 17009KT 0300 FG BKN001
BECMG 1706/1709 9999 NSW FEW005 SCT025
TEMPO 1715/1720 8000 -RADZ BKN012 PROB30
TEMPO 1720/1812 8000 BKN014


Example: see airport list